sensor_id;sensor_type;location;lat;lon;timestamp;P1;durP1;ratioP1;P2;durP2;ratioP2
47912;SDS011;33676;51.006;17.180;2022-08-07T00:01:17;2.40;;;2.20;;
47912;SDS011;33676;51.006;17.180;2022-08-07T00:04:06;3.80;;;2.40;;
47912;SDS011;33676;51.006;17.180;2022-08-07T00:06:38;5.50;;;2.70;;
47912;SDS011;33676;51.006;17.180;2022-08-07T00:09:19;3.10;;;2.80;;
47912;SDS011;33676;51.006;17.180;2022-08-07T00:11:51;2.40;;;2.30;;
47912;SDS011;33676;51.006;17.180;2022-08-07T00:14:23;4.10;;;3.00;;
47912;SDS011;33676;51.006;17.180;2022-08-07T00:16:59;2.80;;;2.50;;
47912;SDS011;33676;51.006;17.180;2022-08-07T00:19:30;2.80;;;2.60;;
47912;SDS011;33676;51.006;17.180;2022-08-07T00:22:19;4.10;;;3.50;;
47912;SDS011;33676;51.006;17.180;2022-08-07T00:25:05;4.50;;;2.80;;
47912;SDS011;33676;51.006;17.180;2022-08-07T00:27:44;3.60;;;3.20;;
47912;SDS011;33676;51.006;17.180;2022-08-07T00:30:24;5.90;;;4.50;;
47912;SDS011;33676;51.006;17.180;2022-08-07T00:32:56;3.80;;;3.30;;
47912;SDS011;33676;51.006;17.180;2022-08-07T00:35:27;3.30;;;2.50;;
47912;SDS011;33676;51.006;17.180;2022-08-07T00:37:58;3.40;;;3.10;;
47912;SDS011;33676;51.006;17.180;2022-08-07T00:40:27;3.00;;;2.80;;
47912;SDS011;33676;51.006;17.180;2022-08-07T00:43:11;5.80;;;3.30;;
47912;SDS011;33676;51.006;17.180;2022-08-07T00:46:01;4.70;;;3.50;;
47912;SDS011;33676;51.006;17.180;2022-08-07T00:48:30;3.40;;;3.10;;
47912;SDS011;33676;51.006;17.180;2022-08-07T00:51:00;4.50;;;3.30;;
47912;SDS011;33676;51.006;17.180;2022-08-07T00:53:30;4.30;;;2.40;;
47912;SDS011;33676;51.006;17.180;2022-08-07T00:56:11;5.60;;;2.90;;
47912;SDS011;33676;51.006;17.180;2022-08-07T00:58:43;5.30;;;3.00;;
47912;SDS011;33676;51.006;17.180;2022-08-07T01:01:17;2.20;;;2.10;;
47912;SDS011;33676;51.006;17.180;2022-08-07T01:03:48;3.50;;;2.60;;
47912;SDS011;33676;51.006;17.180;2022-08-07T01:06:27;3.60;;;2.60;;
47912;SDS011;33676;51.006;17.180;2022-08-07T01:08:57;3.20;;;2.80;;
47912;SDS011;33676;51.006;17.180;2022-08-07T01:11:29;3.70;;;2.40;;
47912;SDS011;33676;51.006;17.180;2022-08-07T01:14:19;2.40;;;2.20;;
47912;SDS011;33676;51.006;17.180;2022-08-07T01:16:56;2.80;;;2.30;;
47912;SDS011;33676;51.006;17.180;2022-08-07T01:19:26;3.50;;;2.40;;
47912;SDS011;33676;51.006;17.180;2022-08-07T01:21:59;3.20;;;2.30;;
47912;SDS011;33676;51.006;17.180;2022-08-07T01:24:30;1.70;;;1.60;;
47912;SDS011;33676;51.006;17.180;2022-08-07T01:26:59;2.40;;;2.20;;
47912;SDS011;33676;51.006;17.180;2022-08-07T01:29:28;2.00;;;1.70;;
47912;SDS011;33676;51.006;17.180;2022-08-07T01:32:01;2.60;;;2.40;;
47912;SDS011;33676;51.006;17.180;2022-08-07T01:34:32;2.90;;;2.20;;
47912;SDS011;33676;51.006;17.180;2022-08-07T01:37:02;3.50;;;2.50;;
47912;SDS011;33676;51.006;17.180;2022-08-07T01:39:36;3.10;;;2.80;;
47912;SDS011;33676;51.006;17.180;2022-08-07T01:42:14;1.90;;;1.60;;
47912;SDS011;33676;51.006;17.180;2022-08-07T01:45:04;3.00;;;1.90;;
47912;SDS011;33676;51.006;17.180;2022-08-07T01:47:42;3.50;;;2.00;;
47912;SDS011;33676;51.006;17.180;2022-08-07T01:50:31;2.10;;;1.90;;
47912;SDS011;33676;51.006;17.180;2022-08-07T01:53:10;1.80;;;1.60;;
47912;SDS011;33676;51.006;17.180;2022-08-07T01:56:06;3.00;;;2.10;;
47912;SDS011;33676;51.006;17.180;2022-08-07T01:58:47;2.00;;;1.90;;
47912;SDS011;33676;51.006;17.180;2022-08-07T02:01:24;2.10;;;2.00;;
47912;SDS011;33676;51.006;17.180;2022-08-07T02:04:30;5.90;;;2.30;;
47912;SDS011;33676;51.006;17.180;2022-08-07T02:07:21;2.10;;;2.00;;
47912;SDS011;33676;51.006;17.180;2022-08-07T02:10:13;2.20;;;2.00;;
47912;SDS011;33676;51.006;17.180;2022-08-07T02:12:45;3.10;;;2.10;;
47912;SDS011;33676;51.006;17.180;2022-08-07T02:15:22;2.00;;;1.80;;
47912;SDS011;33676;51.006;17.180;2022-08-07T02:17:55;3.40;;;2.10;;
47912;SDS011;33676;51.006;17.180;2022-08-07T02:20:27;3.00;;;2.30;;
47912;SDS011;33676;51.006;17.180;2022-08-07T02:23:01;1.90;;;1.80;;
47912;SDS011;33676;51.006;17.180;2022-08-07T02:25:33;1.70;;;1.60;;
47912;SDS011;33676;51.006;17.180;2022-08-07T02:28:27;3.80;;;2.50;;
47912;SDS011;33676;51.006;17.180;2022-08-07T02:30:58;2.00;;;1.90;;
47912;SDS011;33676;51.006;17.180;2022-08-07T02:33:46;11.70;;;2.60;;
47912;SDS011;33676;51.006;17.180;2022-08-07T02:36:31;1.70;;;1.60;;
47912;SDS011;33676;51.006;17.180;2022-08-07T02:39:03;2.80;;;2.20;;
47912;SDS011;33676;51.006;17.180;2022-08-07T02:41:54;4.30;;;2.50;;
47912;SDS011;33676;51.006;17.180;2022-08-07T02:44:23;3.60;;;1.90;;
47912;SDS011;33676;51.006;17.180;2022-08-07T02:47:04;2.30;;;2.20;;
47912;SDS011;33676;51.006;17.180;2022-08-07T02:49:34;4.40;;;2.20;;
47912;SDS011;33676;51.006;17.180;2022-08-07T02:52:28;3.30;;;2.80;;
47912;SDS011;33676;51.006;17.180;2022-08-07T02:55:09;3.70;;;2.30;;
47912;SDS011;33676;51.006;17.180;2022-08-07T02:58:05;2.60;;;1.90;;
47912;SDS011;33676;51.006;17.180;2022-08-07T03:00:38;4.10;;;1.80;;
47912;SDS011;33676;51.006;17.180;2022-08-07T03:03:14;3.90;;;2.10;;
47912;SDS011;33676;51.006;17.180;2022-08-07T03:05:51;2.60;;;2.40;;
47912;SDS011;33676;51.006;17.180;2022-08-07T03:08:21;1.70;;;1.60;;
47912;SDS011;33676;51.006;17.180;2022-08-07T03:10:56;2.40;;;1.90;;
47912;SDS011;33676;51.006;17.180;2022-08-07T03:13:26;2.50;;;2.30;;
47912;SDS011;33676;51.006;17.180;2022-08-07T03:16:06;2.70;;;2.50;;
47912;SDS011;33676;51.006;17.180;2022-08-07T03:18:35;2.10;;;2.00;;
47912;SDS011;33676;51.006;17.180;2022-08-07T03:21:04;2.30;;;2.10;;
47912;SDS011;33676;51.006;17.180;2022-08-07T03:23:38;2.20;;;2.10;;
47912;SDS011;33676;51.006;17.180;2022-08-07T03:26:31;2.70;;;1.70;;
47912;SDS011;33676;51.006;17.180;2022-08-07T03:29:02;1.90;;;1.80;;
47912;SDS011;33676;51.006;17.180;2022-08-07T03:31:41;2.40;;;2.10;;
47912;SDS011;33676;51.006;17.180;2022-08-07T03:36:50;1.90;;;1.80;;
47912;SDS011;33676;51.006;17.180;2022-08-07T03:39:20;1.90;;;1.70;;
47912;SDS011;33676;51.006;17.180;2022-08-07T03:42:11;2.70;;;2.00;;
47912;SDS011;33676;51.006;17.180;2022-08-07T03:44:40;3.10;;;2.60;;
47912;SDS011;33676;51.006;17.180;2022-08-07T03:47:20;2.00;;;1.90;;
47912;SDS011;33676;51.006;17.180;2022-08-07T03:49:49;9.20;;;2.40;;
47912;SDS011;33676;51.006;17.180;2022-08-07T03:52:21;2.50;;;2.00;;
47912;SDS011;33676;51.006;17.180;2022-08-07T03:54:58;1.90;;;1.80;;
47912;SDS011;33676;51.006;17.180;2022-08-07T03:57:35;4.40;;;1.80;;
47912;SDS011;33676;51.006;17.180;2022-08-07T04:00:24;2.00;;;1.90;;
47912;SDS011;33676;51.006;17.180;2022-08-07T04:02:57;2.80;;;1.50;;
47912;SDS011;33676;51.006;17.180;2022-08-07T04:05:34;2.20;;;2.00;;
47912;SDS011;33676;51.006;17.180;2022-08-07T04:08:10;1.70;;;1.60;;
47912;SDS011;33676;51.006;17.180;2022-08-07T04:10:45;3.30;;;2.30;;
47912;SDS011;33676;51.006;17.180;2022-08-07T04:13:36;2.50;;;2.30;;
47912;SDS011;33676;51.006;17.180;2022-08-07T04:16:25;2.70;;;2.50;;
47912;SDS011;33676;51.006;17.180;2022-08-07T04:19:00;5.10;;;2.30;;
47912;SDS011;33676;51.006;17.180;2022-08-07T04:21:39;4.00;;;1.90;;
47912;SDS011;33676;51.006;17.180;2022-08-07T04:24:28;3.80;;;1.90;;
47912;SDS011;33676;51.006;17.180;2022-08-07T04:27:06;3.30;;;2.60;;
47912;SDS011;33676;51.006;17.180;2022-08-07T04:29:47;5.00;;;2.10;;
47912;SDS011;33676;51.006;17.180;2022-08-07T04:32:29;4.90;;;2.40;;
47912;SDS011;33676;51.006;17.180;2022-08-07T04:35:03;2.20;;;2.00;;
47912;SDS011;33676;51.006;17.180;2022-08-07T04:37:38;3.20;;;2.60;;
47912;SDS011;33676;51.006;17.180;2022-08-07T04:40:27;2.30;;;2.10;;
47912;SDS011;33676;51.006;17.180;2022-08-07T04:42:58;2.20;;;1.90;;
47912;SDS011;33676;51.006;17.180;2022-08-07T04:45:40;3.50;;;2.20;;
47912;SDS011;33676;51.006;17.180;2022-08-07T04:48:56;3.70;;;2.10;;
47912;SDS011;33676;51.006;17.180;2022-08-07T04:51:55;2.70;;;2.50;;
47912;SDS011;33676;51.006;17.180;2022-08-07T05:00:58;3.30;;;2.30;;
47912;SDS011;33676;51.006;17.180;2022-08-07T05:03:52;2.00;;;1.50;;
47912;SDS011;33676;51.006;17.180;2022-08-07T05:09:57;2.70;;;2.40;;
47912;SDS011;33676;51.006;17.180;2022-08-07T05:12:50;3.20;;;2.50;;
47912;SDS011;33676;51.006;17.180;2022-08-07T05:15:36;2.80;;;2.30;;
47912;SDS011;33676;51.006;17.180;2022-08-07T05:18:21;4.70;;;4.10;;
47912;SDS011;33676;51.006;17.180;2022-08-07T05:20:59;6.50;;;3.80;;
47912;SDS011;33676;51.006;17.180;2022-08-07T05:23:39;5.10;;;3.70;;
47912;SDS011;33676;51.006;17.180;2022-08-07T05:28:52;4.20;;;2.70;;
47912;SDS011;33676;51.006;17.180;2022-08-07T05:31:28;5.60;;;1.90;;
47912;SDS011;33676;51.006;17.180;2022-08-07T05:34:12;20.30;;;2.30;;
47912;SDS011;33676;51.006;17.180;2022-08-07T05:36:49;4.80;;;3.90;;
47912;SDS011;33676;51.006;17.180;2022-08-07T05:39:21;2.80;;;2.30;;
47912;SDS011;33676;51.006;17.180;2022-08-07T05:42:11;4.10;;;3.30;;
47912;SDS011;33676;51.006;17.180;2022-08-07T05:44:41;5.10;;;3.10;;
47912;SDS011;33676;51.006;17.180;2022-08-07T05:47:31;4.90;;;2.70;;
47912;SDS011;33676;51.006;17.180;2022-08-07T05:50:21;3.10;;;2.80;;
47912;SDS011;33676;51.006;17.180;2022-08-07T05:52:50;2.20;;;1.90;;
47912;SDS011;33676;51.006;17.180;2022-08-07T05:55:19;3.10;;;2.20;;
47912;SDS011;33676;51.006;17.180;2022-08-07T05:57:49;5.10;;;1.90;;
47912;SDS011;33676;51.006;17.180;2022-08-07T06:00:22;2.30;;;2.10;;
47912;SDS011;33676;51.006;17.180;2022-08-07T06:02:52;7.60;;;3.10;;
47912;SDS011;33676;51.006;17.180;2022-08-07T06:05:23;2.90;;;2.30;;
47912;SDS011;33676;51.006;17.180;2022-08-07T06:10:42;2.10;;;2.00;;
47912;SDS011;33676;51.006;17.180;2022-08-07T06:14:29;4.20;;;3.10;;
47912;SDS011;33676;51.006;17.180;2022-08-07T06:16:57;2.30;;;2.10;;
47912;SDS011;33676;51.006;17.180;2022-08-07T06:19:34;3.70;;;1.90;;
47912;SDS011;33676;51.006;17.180;2022-08-07T06:22:24;3.20;;;1.90;;
47912;SDS011;33676;51.006;17.180;2022-08-07T06:24:57;2.20;;;1.90;;
47912;SDS011;33676;51.006;17.180;2022-08-07T06:27:30;3.10;;;2.00;;
47912;SDS011;33676;51.006;17.180;2022-08-07T06:30:18;3.10;;;2.10;;
47912;SDS011;33676;51.006;17.180;2022-08-07T06:33:04;2.60;;;2.40;;
47912;SDS011;33676;51.006;17.180;2022-08-07T06:35:43;3.10;;;1.60;;
47912;SDS011;33676;51.006;17.180;2022-08-07T06:38:32;3.30;;;2.10;;
47912;SDS011;33676;51.006;17.180;2022-08-07T06:41:05;4.60;;;3.50;;
47912;SDS011;33676;51.006;17.180;2022-08-07T06:43:41;3.40;;;2.50;;
47912;SDS011;33676;51.006;17.180;2022-08-07T06:46:26;3.60;;;2.50;;
47912;SDS011;33676;51.006;17.180;2022-08-07T06:49:03;2.30;;;1.60;;
47912;SDS011;33676;51.006;17.180;2022-08-07T06:51:34;2.30;;;2.10;;
47912;SDS011;33676;51.006;17.180;2022-08-07T06:54:17;2.90;;;2.00;;
47912;SDS011;33676;51.006;17.180;2022-08-07T06:57:08;2.10;;;1.60;;
47912;SDS011;33676;51.006;17.180;2022-08-07T06:59:39;1.50;;;1.40;;
47912;SDS011;33676;51.006;17.180;2022-08-07T07:02:29;3.10;;;2.20;;
47912;SDS011;33676;51.006;17.180;2022-08-07T07:05:20;1.90;;;1.80;;
47912;SDS011;33676;51.006;17.180;2022-08-07T07:08:09;1.70;;;1.60;;
47912;SDS011;33676;51.006;17.180;2022-08-07T07:10:52;2.90;;;1.90;;
47912;SDS011;33676;51.006;17.180;2022-08-07T07:13:32;4.40;;;2.80;;
47912;SDS011;33676;51.006;17.180;2022-08-07T07:16:25;1.80;;;1.70;;
47912;SDS011;33676;51.006;17.180;2022-08-07T07:21:53;3.00;;;1.60;;
47912;SDS011;33676;51.006;17.180;2022-08-07T07:24:40;1.40;;;1.30;;
47912;SDS011;33676;51.006;17.180;2022-08-07T07:27:28;4.10;;;3.10;;
47912;SDS011;33676;51.006;17.180;2022-08-07T07:30:28;3.90;;;1.60;;
47912;SDS011;33676;51.006;17.180;2022-08-07T07:33:09;3.00;;;1.70;;
47912;SDS011;33676;51.006;17.180;2022-08-07T07:35:43;2.00;;;1.40;;
47912;SDS011;33676;51.006;17.180;2022-08-07T07:38:35;5.80;;;2.30;;
47912;SDS011;33676;51.006;17.180;2022-08-07T07:41:07;2.70;;;1.90;;
47912;SDS011;33676;51.006;17.180;2022-08-07T07:43:42;2.40;;;1.60;;
47912;SDS011;33676;51.006;17.180;2022-08-07T07:46:35;1.40;;;1.30;;
47912;SDS011;33676;51.006;17.180;2022-08-07T07:49:25;2.10;;;1.30;;
47912;SDS011;33676;51.006;17.180;2022-08-07T07:52:17;2.60;;;1.70;;
47912;SDS011;33676;51.006;17.180;2022-08-07T07:54:50;3.00;;;1.60;;
47912;SDS011;33676;51.006;17.180;2022-08-07T07:57:22;2.90;;;1.70;;
47912;SDS011;33676;51.006;17.180;2022-08-07T08:00:12;1.60;;;1.40;;
47912;SDS011;33676;51.006;17.180;2022-08-07T08:03:00;1.20;;;0.90;;
47912;SDS011;33676;51.006;17.180;2022-08-07T08:05:36;1.70;;;1.10;;
47912;SDS011;33676;51.006;17.180;2022-08-07T08:08:23;0.90;;;0.90;;
47912;SDS011;33676;51.006;17.180;2022-08-07T08:11:09;1.50;;;1.40;;
47912;SDS011;33676;51.006;17.180;2022-08-07T08:13:46;1.00;;;0.90;;
47912;SDS011;33676;51.006;17.180;2022-08-07T08:16:30;1.10;;;1.10;;
47912;SDS011;33676;51.006;17.180;2022-08-07T08:19:03;1.30;;;1.20;;
47912;SDS011;33676;51.006;17.180;2022-08-07T08:21:46;0.80;;;0.70;;
47912;SDS011;33676;51.006;17.180;2022-08-07T08:24:40;2.00;;;1.20;;
47912;SDS011;33676;51.006;17.180;2022-08-07T08:27:49;1.90;;;1.00;;
47912;SDS011;33676;51.006;17.180;2022-08-07T08:30:29;1.70;;;0.70;;
47912;SDS011;33676;51.006;17.180;2022-08-07T08:33:04;0.70;;;0.70;;
47912;SDS011;33676;51.006;17.180;2022-08-07T08:35:42;1.40;;;0.60;;
47912;SDS011;33676;51.006;17.180;2022-08-07T08:38:20;2.30;;;0.90;;
47912;SDS011;33676;51.006;17.180;2022-08-07T08:41:40;1.70;;;0.90;;
47912;SDS011;33676;51.006;17.180;2022-08-07T08:47:23;1.30;;;1.20;;
47912;SDS011;33676;51.006;17.180;2022-08-07T08:50:23;1.00;;;0.90;;
47912;SDS011;33676;51.006;17.180;2022-08-07T08:53:35;2.70;;;1.10;;
47912;SDS011;33676;51.006;17.180;2022-08-07T08:56:27;1.90;;;1.10;;
47912;SDS011;33676;51.006;17.180;2022-08-07T09:11:18;1.40;;;0.90;;
47912;SDS011;33676;51.006;17.180;2022-08-07T09:14:51;0.70;;;0.70;;
47912;SDS011;33676;51.006;17.180;2022-08-07T09:21:46;0.80;;;0.60;;
47912;SDS011;33676;51.006;17.180;2022-08-07T09:24:54;1.20;;;0.70;;
47912;SDS011;33676;51.006;17.180;2022-08-07T09:28:04;2.00;;;0.80;;
47912;SDS011;33676;51.006;17.180;2022-08-07T09:31:41;0.70;;;0.70;;
47912;SDS011;33676;51.006;17.180;2022-08-07T09:34:28;0.60;;;0.60;;
47912;SDS011;33676;51.006;17.180;2022-08-07T09:37:11;0.70;;;0.70;;
47912;SDS011;33676;51.006;17.180;2022-08-07T09:40:27;1.10;;;0.60;;
47912;SDS011;33676;51.006;17.180;2022-08-07T09:43:22;0.80;;;0.80;;
47912;SDS011;33676;51.006;17.180;2022-08-07T09:52:52;1.10;;;1.00;;
47912;SDS011;33676;51.006;17.180;2022-08-07T09:55:57;2.30;;;0.90;;
47912;SDS011;33676;51.006;17.180;2022-08-07T10:11:34;1.60;;;1.10;;
47912;SDS011;33676;51.006;17.180;2022-08-07T10:17:07;1.10;;;0.80;;
47912;SDS011;33676;51.006;17.180;2022-08-07T10:20:29;0.90;;;0.70;;
47912;SDS011;33676;51.006;17.180;2022-08-07T10:23:36;0.80;;;0.70;;
47912;SDS011;33676;51.006;17.180;2022-08-07T10:39:02;2.50;;;1.10;;
47912;SDS011;33676;51.006;17.180;2022-08-07T10:41:43;1.10;;;0.90;;
47912;SDS011;33676;51.006;17.180;2022-08-07T10:44:42;2.00;;;0.90;;
47912;SDS011;33676;51.006;17.180;2022-08-07T10:47:50;0.80;;;0.80;;
47912;SDS011;33676;51.006;17.180;2022-08-07T10:50:38;1.10;;;1.00;;
47912;SDS011;33676;51.006;17.180;2022-08-07T10:53:42;1.40;;;1.20;;
47912;SDS011;33676;51.006;17.180;2022-08-07T11:00:05;1.10;;;1.00;;
47912;SDS011;33676;51.006;17.180;2022-08-07T11:05:30;0.90;;;0.90;;
47912;SDS011;33676;51.006;17.180;2022-08-07T11:12:35;0.80;;;0.70;;
47912;SDS011;33676;51.006;17.180;2022-08-07T11:15:05;3.80;;;1.40;;
47912;SDS011;33676;51.006;17.180;2022-08-07T11:18:50;2.00;;;0.90;;
47912;SDS011;33676;51.006;17.180;2022-08-07T11:21:16;1.20;;;1.10;;
47912;SDS011;33676;51.006;17.180;2022-08-07T11:27:52;2.00;;;0.90;;
47912;SDS011;33676;51.006;17.180;2022-08-07T11:30:58;1.10;;;1.00;;
47912;SDS011;33676;51.006;17.180;2022-08-07T11:43:33;1.00;;;1.00;;
47912;SDS011;33676;51.006;17.180;2022-08-07T11:53:27;1.00;;;1.00;;
47912;SDS011;33676;51.006;17.180;2022-08-07T11:56:39;0.70;;;0.70;;
47912;SDS011;33676;51.006;17.180;2022-08-07T12:06:05;1.40;;;1.30;;
47912;SDS011;33676;51.006;17.180;2022-08-07T12:09:23;1.00;;;1.00;;
47912;SDS011;33676;51.006;17.180;2022-08-07T12:12:10;0.90;;;0.90;;
47912;SDS011;33676;51.006;17.180;2022-08-07T12:17:39;1.00;;;1.00;;
47912;SDS011;33676;51.006;17.180;2022-08-07T12:20:45;0.80;;;0.80;;
47912;SDS011;33676;51.006;17.180;2022-08-07T12:23:41;1.00;;;1.00;;
47912;SDS011;33676;51.006;17.180;2022-08-07T12:26:45;1.80;;;1.10;;
47912;SDS011;33676;51.006;17.180;2022-08-07T12:29:34;1.30;;;1.00;;
47912;SDS011;33676;51.006;17.180;2022-08-07T12:34:50;1.00;;;1.00;;
47912;SDS011;33676;51.006;17.180;2022-08-07T12:37:24;2.10;;;1.20;;
47912;SDS011;33676;51.006;17.180;2022-08-07T12:40:18;0.80;;;0.80;;
47912;SDS011;33676;51.006;17.180;2022-08-07T12:43:10;0.80;;;0.80;;
47912;SDS011;33676;51.006;17.180;2022-08-07T12:58:43;0.90;;;0.90;;
47912;SDS011;33676;51.006;17.180;2022-08-07T13:01:27;1.00;;;1.00;;
47912;SDS011;33676;51.006;17.180;2022-08-07T13:08:04;1.00;;;1.00;;
47912;SDS011;33676;51.006;17.180;2022-08-07T13:20:24;0.90;;;0.90;;
47912;SDS011;33676;51.006;17.180;2022-08-07T13:23:08;0.80;;;0.80;;
47912;SDS011;33676;51.006;17.180;2022-08-07T13:32:14;1.20;;;1.00;;
47912;SDS011;33676;51.006;17.180;2022-08-07T13:38:20;0.90;;;0.90;;
47912;SDS011;33676;51.006;17.180;2022-08-07T13:41:32;1.50;;;1.10;;
47912;SDS011;33676;51.006;17.180;2022-08-07T13:44:23;0.90;;;0.90;;
47912;SDS011;33676;51.006;17.180;2022-08-07T13:47:04;1.40;;;1.30;;
47912;SDS011;33676;51.006;17.180;2022-08-07T13:49:38;1.10;;;1.10;;
47912;SDS011;33676;51.006;17.180;2022-08-07T13:52:31;1.00;;;0.90;;
47912;SDS011;33676;51.006;17.180;2022-08-07T13:55:11;3.10;;;2.90;;
47912;SDS011;33676;51.006;17.180;2022-08-07T13:58:09;2.00;;;1.90;;
47912;SDS011;33676;51.006;17.180;2022-08-07T14:01:12;2.50;;;2.40;;
47912;SDS011;33676;51.006;17.180;2022-08-07T14:03:49;1.00;;;1.00;;
47912;SDS011;33676;51.006;17.180;2022-08-07T14:06:36;1.00;;;1.00;;
47912;SDS011;33676;51.006;17.180;2022-08-07T14:09:17;1.00;;;1.00;;
47912;SDS011;33676;51.006;17.180;2022-08-07T14:15:04;0.90;;;0.90;;
47912;SDS011;33676;51.006;17.180;2022-08-07T14:17:37;2.20;;;2.10;;
47912;SDS011;33676;51.006;17.180;2022-08-07T14:23:27;1.30;;;1.20;;
47912;SDS011;33676;51.006;17.180;2022-08-07T14:26:20;1.10;;;1.10;;
47912;SDS011;33676;51.006;17.180;2022-08-07T14:29:16;1.50;;;1.50;;
47912;SDS011;33676;51.006;17.180;2022-08-07T14:32:09;2.90;;;2.70;;
47912;SDS011;33676;51.006;17.180;2022-08-07T14:34:45;1.70;;;1.70;;
47912;SDS011;33676;51.006;17.180;2022-08-07T14:37:19;1.30;;;1.30;;
47912;SDS011;33676;51.006;17.180;2022-08-07T14:40:06;1.40;;;1.30;;
47912;SDS011;33676;51.006;17.180;2022-08-07T14:43:00;1.30;;;1.30;;
47912;SDS011;33676;51.006;17.180;2022-08-07T14:45:51;1.10;;;1.10;;
47912;SDS011;33676;51.006;17.180;2022-08-07T14:48:27;4.80;;;1.70;;
47912;SDS011;33676;51.006;17.180;2022-08-07T14:51:06;1.10;;;1.10;;
47912;SDS011;33676;51.006;17.180;2022-08-07T14:54:00;1.80;;;1.30;;
47912;SDS011;33676;51.006;17.180;2022-08-07T14:56:50;1.30;;;1.00;;
47912;SDS011;33676;51.006;17.180;2022-08-07T14:59:21;1.20;;;1.20;;
47912;SDS011;33676;51.006;17.180;2022-08-07T15:02:20;1.00;;;1.00;;
47912;SDS011;33676;51.006;17.180;2022-08-07T15:05:03;0.90;;;0.90;;
47912;SDS011;33676;51.006;17.180;2022-08-07T15:07:48;1.70;;;1.00;;
47912;SDS011;33676;51.006;17.180;2022-08-07T15:10:26;1.00;;;1.00;;
47912;SDS011;33676;51.006;17.180;2022-08-07T15:13:19;1.10;;;1.10;;
47912;SDS011;33676;51.006;17.180;2022-08-07T15:16:05;1.10;;;1.10;;
47912;SDS011;33676;51.006;17.180;2022-08-07T15:18:56;1.20;;;1.20;;
47912;SDS011;33676;51.006;17.180;2022-08-07T15:21:33;1.00;;;1.00;;
47912;SDS011;33676;51.006;17.180;2022-08-07T15:24:38;1.10;;;1.10;;
47912;SDS011;33676;51.006;17.180;2022-08-07T15:27:30;1.20;;;1.20;;
47912;SDS011;33676;51.006;17.180;2022-08-07T15:30:07;1.20;;;1.20;;
47912;SDS011;33676;51.006;17.180;2022-08-07T15:32:58;1.10;;;1.10;;
47912;SDS011;33676;51.006;17.180;2022-08-07T15:35:32;1.60;;;1.20;;
47912;SDS011;33676;51.006;17.180;2022-08-07T15:38:27;3.20;;;1.70;;
47912;SDS011;33676;51.006;17.180;2022-08-07T15:41:22;2.40;;;2.20;;
47912;SDS011;33676;51.006;17.180;2022-08-07T15:44:16;1.60;;;1.60;;
47912;SDS011;33676;51.006;17.180;2022-08-07T15:47:00;1.60;;;1.60;;
47912;SDS011;33676;51.006;17.180;2022-08-07T15:49:45;2.20;;;2.20;;
47912;SDS011;33676;51.006;17.180;2022-08-07T15:52:34;1.70;;;1.70;;
47912;SDS011;33676;51.006;17.180;2022-08-07T15:55:08;2.00;;;1.90;;
47912;SDS011;33676;51.006;17.180;2022-08-07T15:57:45;2.10;;;2.00;;
47912;SDS011;33676;51.006;17.180;2022-08-07T16:00:20;2.10;;;2.00;;
47912;SDS011;33676;51.006;17.180;2022-08-07T16:03:14;4.00;;;3.90;;
47912;SDS011;33676;51.006;17.180;2022-08-07T16:05:50;2.10;;;2.10;;
47912;SDS011;33676;51.006;17.180;2022-08-07T16:08:22;2.20;;;2.20;;
47912;SDS011;33676;51.006;17.180;2022-08-07T16:11:07;2.50;;;2.40;;
47912;SDS011;33676;51.006;17.180;2022-08-07T16:14:16;2.30;;;2.30;;
47912;SDS011;33676;51.006;17.180;2022-08-07T16:23:58;2.50;;;2.50;;
47912;SDS011;33676;51.006;17.180;2022-08-07T16:26:48;2.40;;;2.40;;
47912;SDS011;33676;51.006;17.180;2022-08-07T16:32:45;2.40;;;2.40;;
47912;SDS011;33676;51.006;17.180;2022-08-07T16:35:31;2.20;;;2.20;;
47912;SDS011;33676;51.006;17.180;2022-08-07T16:38:34;1.90;;;1.90;;
47912;SDS011;33676;51.006;17.180;2022-08-07T16:41:50;1.60;;;1.60;;
47912;SDS011;33676;51.006;17.180;2022-08-07T16:44:42;1.40;;;1.30;;
47912;SDS011;33676;51.006;17.180;2022-08-07T16:48:07;1.40;;;1.40;;
47912;SDS011;33676;51.006;17.180;2022-08-07T17:00:39;1.60;;;1.50;;
47912;SDS011;33676;51.006;17.180;2022-08-07T17:07:08;1.40;;;1.30;;
47912;SDS011;33676;51.006;17.180;2022-08-07T17:15:52;1.40;;;1.40;;
47912;SDS011;33676;51.006;17.180;2022-08-07T17:21:49;1.60;;;1.60;;
47912;SDS011;33676;51.006;17.180;2022-08-07T17:31:12;2.10;;;2.00;;
47912;SDS011;33676;51.006;17.180;2022-08-07T17:33:50;3.00;;;1.80;;
47912;SDS011;33676;51.006;17.180;2022-08-07T17:36:50;2.70;;;2.60;;
47912;SDS011;33676;51.006;17.180;2022-08-07T17:45:36;1.70;;;1.60;;
47912;SDS011;33676;51.006;17.180;2022-08-07T17:48:16;1.30;;;1.20;;
47912;SDS011;33676;51.006;17.180;2022-08-07T17:54:07;1.80;;;1.80;;
47912;SDS011;33676;51.006;17.180;2022-08-07T17:57:18;1.30;;;1.10;;
47912;SDS011;33676;51.006;17.180;2022-08-07T17:59:51;1.30;;;1.00;;
47912;SDS011;33676;51.006;17.180;2022-08-07T18:02:32;1.00;;;1.00;;
47912;SDS011;33676;51.006;17.180;2022-08-07T18:05:43;1.20;;;1.10;;
47912;SDS011;33676;51.006;17.180;2022-08-07T18:11:40;0.90;;;0.90;;
47912;SDS011;33676;51.006;17.180;2022-08-07T18:14:45;3.10;;;1.70;;
47912;SDS011;33676;51.006;17.180;2022-08-07T18:20:32;1.10;;;1.10;;
47912;SDS011;33676;51.006;17.180;2022-08-07T18:26:58;0.90;;;0.90;;
47912;SDS011;33676;51.006;17.180;2022-08-07T18:29:51;2.20;;;1.00;;
47912;SDS011;33676;51.006;17.180;2022-08-07T18:42:02;2.30;;;0.90;;
47912;SDS011;33676;51.006;17.180;2022-08-07T18:45:11;3.30;;;0.90;;
47912;SDS011;33676;51.006;17.180;2022-08-07T18:48:06;1.00;;;1.00;;
47912;SDS011;33676;51.006;17.180;2022-08-07T18:51:19;1.90;;;1.50;;
47912;SDS011;33676;51.006;17.180;2022-08-07T18:54:32;1.20;;;1.20;;
47912;SDS011;33676;51.006;17.180;2022-08-07T19:06:15;2.00;;;1.80;;
47912;SDS011;33676;51.006;17.180;2022-08-07T19:18:24;1.50;;;1.40;;
47912;SDS011;33676;51.006;17.180;2022-08-07T19:24:21;1.70;;;1.20;;
47912;SDS011;33676;51.006;17.180;2022-08-07T19:27:04;1.50;;;1.40;;
47912;SDS011;33676;51.006;17.180;2022-08-07T19:30:00;1.60;;;1.30;;
47912;SDS011;33676;51.006;17.180;2022-08-07T19:32:54;1.20;;;1.10;;
47912;SDS011;33676;51.006;17.180;2022-08-07T19:35:41;1.60;;;1.50;;
47912;SDS011;33676;51.006;17.180;2022-08-07T19:38:14;1.80;;;1.60;;
47912;SDS011;33676;51.006;17.180;2022-08-07T19:40:48;2.00;;;1.50;;
47912;SDS011;33676;51.006;17.180;2022-08-07T19:46:15;1.80;;;1.60;;
47912;SDS011;33676;51.006;17.180;2022-08-07T19:49:04;1.80;;;1.40;;
47912;SDS011;33676;51.006;17.180;2022-08-07T19:51:35;1.50;;;1.40;;
47912;SDS011;33676;51.006;17.180;2022-08-07T19:54:20;4.80;;;1.70;;
47912;SDS011;33676;51.006;17.180;2022-08-07T19:57:03;1.40;;;1.30;;
47912;SDS011;33676;51.006;17.180;2022-08-07T20:00:00;2.50;;;1.80;;
47912;SDS011;33676;51.006;17.180;2022-08-07T20:02:42;1.40;;;1.30;;
47912;SDS011;33676;51.006;17.180;2022-08-07T20:05:27;3.10;;;2.80;;
47912;SDS011;33676;51.006;17.180;2022-08-07T20:08:23;5.30;;;4.80;;
47912;SDS011;33676;51.006;17.180;2022-08-07T20:11:02;4.10;;;3.30;;
47912;SDS011;33676;51.006;17.180;2022-08-07T20:13:44;3.40;;;2.50;;
47912;SDS011;33676;51.006;17.180;2022-08-07T20:16:23;2.60;;;2.40;;
47912;SDS011;33676;51.006;17.180;2022-08-07T20:19:04;2.40;;;2.10;;
47912;SDS011;33676;51.006;17.180;2022-08-07T20:21:38;1.80;;;1.70;;
47912;SDS011;33676;51.006;17.180;2022-08-07T20:24:18;3.80;;;2.20;;
47912;SDS011;33676;51.006;17.180;2022-08-07T20:26:51;2.10;;;1.90;;
47912;SDS011;33676;51.006;17.180;2022-08-07T20:29:24;3.80;;;2.30;;